sensor_id;sensor_type;location;lat;lon;timestamp;P1;durP1;ratioP1;P2;durP2;ratioP2
26106;SDS011;13866;50.748;12.630;2023-09-19T00:00:19;1.27;;;1.27;;
26106;SDS011;13866;50.748;12.630;2023-09-19T00:02:46;2.20;;;1.60;;
26106;SDS011;13866;50.748;12.630;2023-09-19T00:05:18;4.10;;;1.73;;
26106;SDS011;13866;50.748;12.630;2023-09-19T00:07:48;4.10;;;1.93;;
26106;SDS011;13866;50.748;12.630;2023-09-19T00:10:20;3.60;;;1.53;;
26106;SDS011;13866;50.748;12.630;2023-09-19T00:12:47;1.80;;;1.70;;
26106;SDS011;13866;50.748;12.630;2023-09-19T00:15:13;1.77;;;1.63;;
26106;SDS011;13866;50.748;12.630;2023-09-19T00:17:42;2.50;;;1.70;;
26106;SDS011;13866;50.748;12.630;2023-09-19T00:20:08;3.00;;;1.77;;
26106;SDS011;13866;50.748;12.630;2023-09-19T00:22:41;3.63;;;1.70;;
26106;SDS011;13866;50.748;12.630;2023-09-19T00:25:10;1.47;;;1.47;;
26106;SDS011;13866;50.748;12.630;2023-09-19T00:27:37;2.20;;;1.10;;
26106;SDS011;13866;50.748;12.630;2023-09-19T00:30:07;1.63;;;1.63;;
26106;SDS011;13866;50.748;12.630;2023-09-19T00:32:39;1.63;;;1.63;;
26106;SDS011;13866;50.748;12.630;2023-09-19T00:35:05;1.23;;;1.23;;
26106;SDS011;13866;50.748;12.630;2023-09-19T00:37:33;1.20;;;1.20;;
26106;SDS011;13866;50.748;12.630;2023-09-19T00:39:59;1.40;;;1.40;;
26106;SDS011;13866;50.748;12.630;2023-09-19T00:42:24;1.70;;;1.70;;
26106;SDS011;13866;50.748;12.630;2023-09-19T00:44:50;1.50;;;1.40;;
26106;SDS011;13866;50.748;12.630;2023-09-19T00:47:17;1.20;;;1.17;;
26106;SDS011;13866;50.748;12.630;2023-09-19T00:49:46;1.87;;;1.77;;
26106;SDS011;13866;50.748;12.630;2023-09-19T00:52:17;1.67;;;1.57;;
26106;SDS011;13866;50.748;12.630;2023-09-19T00:54:48;1.77;;;1.47;;
26106;SDS011;13866;50.748;12.630;2023-09-19T00:57:14;1.50;;;1.50;;
26106;SDS011;13866;50.748;12.630;2023-09-19T00:59:40;1.37;;;1.37;;
26106;SDS011;13866;50.748;12.630;2023-09-19T01:02:07;1.20;;;1.20;;
26106;SDS011;13866;50.748;12.630;2023-09-19T01:04:33;1.53;;;1.53;;
26106;SDS011;13866;50.748;12.630;2023-09-19T01:06:59;1.30;;;1.30;;
26106;SDS011;13866;50.748;12.630;2023-09-19T01:09:24;1.30;;;1.20;;
26106;SDS011;13866;50.748;12.630;2023-09-19T01:11:51;3.40;;;1.13;;
26106;SDS011;13866;50.748;12.630;2023-09-19T01:17:22;2.43;;;1.40;;
26106;SDS011;13866;50.748;12.630;2023-09-19T01:20:03;1.23;;;1.23;;
26106;SDS011;13866;50.748;12.630;2023-09-19T01:28:34;1.60;;;1.50;;
26106;SDS011;13866;50.748;12.630;2023-09-19T01:31:19;3.30;;;1.33;;
26106;SDS011;13866;50.748;12.630;2023-09-19T01:33:59;1.90;;;1.67;;
26106;SDS011;13866;50.748;12.630;2023-09-19T01:36:26;1.70;;;1.30;;
26106;SDS011;13866;50.748;12.630;2023-09-19T01:38:52;3.27;;;1.27;;
26106;SDS011;13866;50.748;12.630;2023-09-19T01:41:21;4.23;;;1.17;;
26106;SDS011;13866;50.748;12.630;2023-09-19T01:43:52;1.00;;;1.00;;
26106;SDS011;13866;50.748;12.630;2023-09-19T01:46:22;3.80;;;1.30;;
26106;SDS011;13866;50.748;12.630;2023-09-19T01:51:21;2.13;;;1.37;;
26106;SDS011;13866;50.748;12.630;2023-09-19T01:54:01;1.87;;;1.03;;
26106;SDS011;13866;50.748;12.630;2023-09-19T01:56:34;2.00;;;1.20;;
26106;SDS011;13866;50.748;12.630;2023-09-19T01:59:16;1.00;;;1.00;;
26106;SDS011;13866;50.748;12.630;2023-09-19T02:01:47;1.13;;;1.13;;
26106;SDS011;13866;50.748;12.630;2023-09-19T02:04:14;2.20;;;1.43;;
26106;SDS011;13866;50.748;12.630;2023-09-19T02:06:40;6.47;;;1.10;;
26106;SDS011;13866;50.748;12.630;2023-09-19T02:09:07;3.07;;;1.67;;
26106;SDS011;13866;50.748;12.630;2023-09-19T02:11:33;1.40;;;1.40;;
26106;SDS011;13866;50.748;12.630;2023-09-19T02:13:59;1.07;;;1.07;;
26106;SDS011;13866;50.748;12.630;2023-09-19T02:16:25;2.10;;;1.37;;
26106;SDS011;13866;50.748;12.630;2023-09-19T02:18:50;1.80;;;1.70;;
26106;SDS011;13866;50.748;12.630;2023-09-19T02:21:16;1.63;;;1.33;;
26106;SDS011;13866;50.748;12.630;2023-09-19T02:23:42;7.40;;;1.60;;
26106;SDS011;13866;50.748;12.630;2023-09-19T02:26:12;1.37;;;1.37;;
26106;SDS011;13866;50.748;12.630;2023-09-19T02:28:38;3.40;;;1.33;;
26106;SDS011;13866;50.748;12.630;2023-09-19T02:31:04;1.10;;;1.10;;
26106;SDS011;13866;50.748;12.630;2023-09-19T02:33:33;2.50;;;1.53;;
26106;SDS011;13866;50.748;12.630;2023-09-19T02:35:58;2.87;;;1.63;;
26106;SDS011;13866;50.748;12.630;2023-09-19T02:38:24;1.10;;;1.10;;
26106;SDS011;13866;50.748;12.630;2023-09-19T02:40:51;5.10;;;1.57;;
26106;SDS011;13866;50.748;12.630;2023-09-19T02:43:17;1.37;;;1.37;;
26106;SDS011;13866;50.748;12.630;2023-09-19T02:45:44;1.53;;;1.53;;
26106;SDS011;13866;50.748;12.630;2023-09-19T02:48:11;2.87;;;2.70;;
26106;SDS011;13866;50.748;12.630;2023-09-19T02:50:37;1.50;;;1.50;;
26106;SDS011;13866;50.748;12.630;2023-09-19T02:53:05;1.30;;;1.30;;
26106;SDS011;13866;50.748;12.630;2023-09-19T02:55:31;1.90;;;1.90;;
26106;SDS011;13866;50.748;12.630;2023-09-19T02:57:57;2.10;;;1.83;;
26106;SDS011;13866;50.748;12.630;2023-09-19T03:00:23;1.20;;;1.20;;
26106;SDS011;13866;50.748;12.630;2023-09-19T03:05:15;2.20;;;1.30;;
26106;SDS011;13866;50.748;12.630;2023-09-19T03:07:41;2.20;;;1.90;;
26106;SDS011;13866;50.748;12.630;2023-09-19T03:10:08;1.50;;;1.50;;
26106;SDS011;13866;50.748;12.630;2023-09-19T03:12:34;1.10;;;1.10;;
26106;SDS011;13866;50.748;12.630;2023-09-19T03:15:00;1.80;;;1.40;;
26106;SDS011;13866;50.748;12.630;2023-09-19T03:17:25;1.33;;;1.33;;
26106;SDS011;13866;50.748;12.630;2023-09-19T03:19:52;2.00;;;1.40;;
26106;SDS011;13866;50.748;12.630;2023-09-19T03:22:18;1.90;;;1.80;;
26106;SDS011;13866;50.748;12.630;2023-09-19T03:24:44;2.30;;;1.57;;
26106;SDS011;13866;50.748;12.630;2023-09-19T03:27:11;4.33;;;2.77;;
26106;SDS011;13866;50.748;12.630;2023-09-19T03:29:39;1.30;;;1.30;;
26106;SDS011;13866;50.748;12.630;2023-09-19T03:32:04;6.10;;;1.80;;
26106;SDS011;13866;50.748;12.630;2023-09-19T03:34:30;1.43;;;1.43;;
26106;SDS011;13866;50.748;12.630;2023-09-19T03:36:56;1.63;;;1.63;;
26106;SDS011;13866;50.748;12.630;2023-09-19T03:39:21;1.40;;;1.40;;
26106;SDS011;13866;50.748;12.630;2023-09-19T03:41:46;4.63;;;1.83;;
26106;SDS011;13866;50.748;12.630;2023-09-19T03:44:12;6.20;;;1.70;;
26106;SDS011;13866;50.748;12.630;2023-09-19T03:46:38;1.73;;;1.63;;
26106;SDS011;13866;50.748;12.630;2023-09-19T03:49:03;2.30;;;1.67;;
26106;SDS011;13866;50.748;12.630;2023-09-19T03:51:29;1.50;;;1.50;;
26106;SDS011;13866;50.748;12.630;2023-09-19T03:53:55;3.80;;;1.67;;
26106;SDS011;13866;50.748;12.630;2023-09-19T03:56:21;1.97;;;1.97;;
26106;SDS011;13866;50.748;12.630;2023-09-19T03:58:46;1.80;;;1.80;;
26106;SDS011;13866;50.748;12.630;2023-09-19T04:01:12;5.90;;;1.90;;
26106;SDS011;13866;50.748;12.630;2023-09-19T04:03:38;1.70;;;1.60;;
26106;SDS011;13866;50.748;12.630;2023-09-19T04:06:16;1.87;;;1.67;;
26106;SDS011;13866;50.748;12.630;2023-09-19T04:08:42;1.47;;;1.40;;
26106;SDS011;13866;50.748;12.630;2023-09-19T04:11:09;1.40;;;1.40;;
26106;SDS011;13866;50.748;12.630;2023-09-19T04:13:35;2.90;;;1.57;;
26106;SDS011;13866;50.748;12.630;2023-09-19T04:16:01;1.83;;;1.83;;
26106;SDS011;13866;50.748;12.630;2023-09-19T04:18:29;1.57;;;1.50;;
26106;SDS011;13866;50.748;12.630;2023-09-19T04:20:57;1.60;;;1.60;;
26106;SDS011;13866;50.748;12.630;2023-09-19T04:23:23;1.67;;;1.57;;
26106;SDS011;13866;50.748;12.630;2023-09-19T04:25:49;2.43;;;2.23;;
26106;SDS011;13866;50.748;12.630;2023-09-19T04:28:15;1.70;;;1.70;;
26106;SDS011;13866;50.748;12.630;2023-09-19T04:30:41;2.20;;;1.40;;
26106;SDS011;13866;50.748;12.630;2023-09-19T04:33:07;1.90;;;1.30;;
26106;SDS011;13866;50.748;12.630;2023-09-19T04:35:32;5.70;;;1.67;;
26106;SDS011;13866;50.748;12.630;2023-09-19T04:37:58;6.77;;;1.60;;
26106;SDS011;13866;50.748;12.630;2023-09-19T04:40:24;1.83;;;1.83;;
26106;SDS011;13866;50.748;12.630;2023-09-19T04:42:54;1.53;;;1.53;;
26106;SDS011;13866;50.748;12.630;2023-09-19T04:45:23;1.30;;;1.30;;
26106;SDS011;13866;50.748;12.630;2023-09-19T04:47:52;1.77;;;1.77;;
26106;SDS011;13866;50.748;12.630;2023-09-19T04:50:18;4.50;;;2.30;;
26106;SDS011;13866;50.748;12.630;2023-09-19T04:52:48;2.13;;;2.03;;
26106;SDS011;13866;50.748;12.630;2023-09-19T04:55:15;2.13;;;1.60;;
26106;SDS011;13866;50.748;12.630;2023-09-19T04:57:42;1.80;;;1.80;;
26106;SDS011;13866;50.748;12.630;2023-09-19T05:00:12;6.50;;;2.00;;
26106;SDS011;13866;50.748;12.630;2023-09-19T05:02:39;2.27;;;1.50;;
26106;SDS011;13866;50.748;12.630;2023-09-19T05:05:06;1.40;;;1.40;;
26106;SDS011;13866;50.748;12.630;2023-09-19T05:07:33;2.20;;;2.10;;
26106;SDS011;13866;50.748;12.630;2023-09-19T05:09:59;3.53;;;1.60;;
26106;SDS011;13866;50.748;12.630;2023-09-19T05:12:26;1.40;;;1.40;;
26106;SDS011;13866;50.748;12.630;2023-09-19T05:14:52;1.37;;;1.37;;
26106;SDS011;13866;50.748;12.630;2023-09-19T05:17:18;1.60;;;1.50;;
26106;SDS011;13866;50.748;12.630;2023-09-19T05:19:44;1.90;;;1.80;;
26106;SDS011;13866;50.748;12.630;2023-09-19T05:22:11;1.07;;;1.07;;
26106;SDS011;13866;50.748;12.630;2023-09-19T05:24:37;2.50;;;2.00;;
26106;SDS011;13866;50.748;12.630;2023-09-19T05:27:04;1.50;;;1.50;;
26106;SDS011;13866;50.748;12.630;2023-09-19T05:29:29;3.43;;;1.43;;
26106;SDS011;13866;50.748;12.630;2023-09-19T05:31:55;2.37;;;2.27;;
26106;SDS011;13866;50.748;12.630;2023-09-19T05:34:20;1.47;;;1.47;;
26106;SDS011;13866;50.748;12.630;2023-09-19T05:36:46;1.27;;;1.20;;
26106;SDS011;13866;50.748;12.630;2023-09-19T05:39:13;1.93;;;1.53;;
26106;SDS011;13866;50.748;12.630;2023-09-19T05:41:39;1.97;;;1.20;;
26106;SDS011;13866;50.748;12.630;2023-09-19T05:44:05;1.87;;;1.30;;
26106;SDS011;13866;50.748;12.630;2023-09-19T05:46:31;1.50;;;1.50;;
26106;SDS011;13866;50.748;12.630;2023-09-19T05:48:57;1.07;;;1.07;;
26106;SDS011;13866;50.748;12.630;2023-09-19T05:51:23;5.50;;;1.80;;
26106;SDS011;13866;50.748;12.630;2023-09-19T05:53:49;1.13;;;1.13;;
26106;SDS011;13866;50.748;12.630;2023-09-19T05:56:15;2.10;;;1.47;;
26106;SDS011;13866;50.748;12.630;2023-09-19T05:58:42;1.90;;;1.80;;
26106;SDS011;13866;50.748;12.630;2023-09-19T06:01:09;1.40;;;1.40;;
26106;SDS011;13866;50.748;12.630;2023-09-19T06:03:34;1.40;;;1.40;;
26106;SDS011;13866;50.748;12.630;2023-09-19T06:06:01;1.30;;;1.20;;
26106;SDS011;13866;50.748;12.630;2023-09-19T06:08:26;1.87;;;1.87;;
26106;SDS011;13866;50.748;12.630;2023-09-19T06:10:53;2.70;;;1.33;;
26106;SDS011;13866;50.748;12.630;2023-09-19T06:13:19;1.27;;;1.27;;
26106;SDS011;13866;50.748;12.630;2023-09-19T06:15:45;1.20;;;1.20;;
26106;SDS011;13866;50.748;12.630;2023-09-19T06:18:12;1.30;;;1.30;;
26106;SDS011;13866;50.748;12.630;2023-09-19T06:20:46;3.70;;;1.50;;
26106;SDS011;13866;50.748;12.630;2023-09-19T06:23:12;3.50;;;1.27;;
26106;SDS011;13866;50.748;12.630;2023-09-19T06:25:38;2.50;;;1.33;;
26106;SDS011;13866;50.748;12.630;2023-09-19T06:28:04;1.37;;;1.37;;
26106;SDS011;13866;50.748;12.630;2023-09-19T06:30:30;1.33;;;1.33;;
26106;SDS011;13866;50.748;12.630;2023-09-19T06:32:57;1.67;;;1.67;;
26106;SDS011;13866;50.748;12.630;2023-09-19T06:35:23;1.10;;;1.10;;
26106;SDS011;13866;50.748;12.630;2023-09-19T06:37:51;1.87;;;1.77;;
26106;SDS011;13866;50.748;12.630;2023-09-19T06:40:17;1.50;;;1.50;;
26106;SDS011;13866;50.748;12.630;2023-09-19T06:42:44;1.67;;;1.67;;
26106;SDS011;13866;50.748;12.630;2023-09-19T06:45:15;2.20;;;2.03;;
26106;SDS011;13866;50.748;12.630;2023-09-19T06:47:45;1.63;;;1.53;;
26106;SDS011;13866;50.748;12.630;2023-09-19T06:50:14;1.70;;;1.70;;
26106;SDS011;13866;50.748;12.630;2023-09-19T06:52:40;1.70;;;1.30;;
26106;SDS011;13866;50.748;12.630;2023-09-19T06:55:06;1.57;;;1.27;;
26106;SDS011;13866;50.748;12.630;2023-09-19T06:57:33;1.50;;;1.40;;
26106;SDS011;13866;50.748;12.630;2023-09-19T06:59:59;1.47;;;1.47;;
26106;SDS011;13866;50.748;12.630;2023-09-19T07:02:26;5.03;;;1.67;;
26106;SDS011;13866;50.748;12.630;2023-09-19T07:04:52;2.20;;;1.53;;
26106;SDS011;13866;50.748;12.630;2023-09-19T07:07:17;1.20;;;1.20;;
26106;SDS011;13866;50.748;12.630;2023-09-19T07:09:43;1.40;;;1.30;;
26106;SDS011;13866;50.748;12.630;2023-09-19T07:12:08;1.63;;;1.60;;
26106;SDS011;13866;50.748;12.630;2023-09-19T07:14:34;1.80;;;1.70;;
26106;SDS011;13866;50.748;12.630;2023-09-19T07:16:59;1.80;;;1.57;;
26106;SDS011;13866;50.748;12.630;2023-09-19T07:19:25;1.17;;;1.17;;
26106;SDS011;13866;50.748;12.630;2023-09-19T07:21:53;4.00;;;1.70;;
26106;SDS011;13866;50.748;12.630;2023-09-19T07:24:19;1.73;;;1.63;;
26106;SDS011;13866;50.748;12.630;2023-09-19T07:26:47;1.73;;;1.30;;
26106;SDS011;13866;50.748;12.630;2023-09-19T07:29:13;5.07;;;1.50;;
26106;SDS011;13866;50.748;12.630;2023-09-19T07:31:38;1.47;;;1.37;;
26106;SDS011;13866;50.748;12.630;2023-09-19T07:34:04;5.13;;;2.17;;
26106;SDS011;13866;50.748;12.630;2023-09-19T07:36:31;1.37;;;1.37;;
26106;SDS011;13866;50.748;12.630;2023-09-19T07:38:59;3.37;;;1.30;;
26106;SDS011;13866;50.748;12.630;2023-09-19T07:41:25;1.30;;;1.30;;
26106;SDS011;13866;50.748;12.630;2023-09-19T07:43:50;1.40;;;1.30;;
26106;SDS011;13866;50.748;12.630;2023-09-19T07:46:16;7.93;;;1.40;;
26106;SDS011;13866;50.748;12.630;2023-09-19T07:48:42;1.07;;;1.07;;
26106;SDS011;13866;50.748;12.630;2023-09-19T07:51:12;1.20;;;1.20;;
26106;SDS011;13866;50.748;12.630;2023-09-19T07:53:40;1.40;;;1.40;;
26106;SDS011;13866;50.748;12.630;2023-09-19T07:56:07;1.10;;;1.10;;
26106;SDS011;13866;50.748;12.630;2023-09-19T07:58:34;3.40;;;1.40;;
26106;SDS011;13866;50.748;12.630;2023-09-19T08:01:05;1.40;;;1.30;;
26106;SDS011;13866;50.748;12.630;2023-09-19T08:03:32;1.87;;;1.40;;
26106;SDS011;13866;50.748;12.630;2023-09-19T08:05:59;1.00;;;1.00;;
26106;SDS011;13866;50.748;12.630;2023-09-19T08:08:25;1.10;;;1.10;;
26106;SDS011;13866;50.748;12.630;2023-09-19T08:10:55;1.03;;;1.03;;
26106;SDS011;13866;50.748;12.630;2023-09-19T08:13:24;1.07;;;1.07;;
26106;SDS011;13866;50.748;12.630;2023-09-19T08:15:51;1.30;;;1.17;;
26106;SDS011;13866;50.748;12.630;2023-09-19T08:18:18;1.13;;;1.13;;
26106;SDS011;13866;50.748;12.630;2023-09-19T08:20:48;1.40;;;1.30;;
26106;SDS011;13866;50.748;12.630;2023-09-19T08:23:15;3.50;;;1.33;;
26106;SDS011;13866;50.748;12.630;2023-09-19T08:25:42;1.20;;;1.20;;
26106;SDS011;13866;50.748;12.630;2023-09-19T08:28:08;1.20;;;1.13;;
26106;SDS011;13866;50.748;12.630;2023-09-19T08:30:37;1.33;;;1.33;;
26106;SDS011;13866;50.748;12.630;2023-09-19T08:33:05;1.70;;;1.30;;
26106;SDS011;13866;50.748;12.630;2023-09-19T08:35:32;1.20;;;1.20;;
26106;SDS011;13866;50.748;12.630;2023-09-19T08:37:58;1.27;;;1.27;;
26106;SDS011;13866;50.748;12.630;2023-09-19T08:40:25;1.23;;;1.20;;
26106;SDS011;13866;50.748;12.630;2023-09-19T08:42:55;3.77;;;1.20;;
26106;SDS011;13866;50.748;12.630;2023-09-19T08:45:22;1.33;;;1.23;;
26106;SDS011;13866;50.748;12.630;2023-09-19T08:54:08;1.50;;;1.50;;
26106;SDS011;13866;50.748;12.630;2023-09-19T08:56:34;2.23;;;1.73;;
26106;SDS011;13866;50.748;12.630;2023-09-19T08:59:04;1.40;;;1.20;;
26106;SDS011;13866;50.748;12.630;2023-09-19T09:01:34;2.73;;;1.30;;
26106;SDS011;13866;50.748;12.630;2023-09-19T09:04:01;1.23;;;1.23;;
26106;SDS011;13866;50.748;12.630;2023-09-19T09:06:27;0.80;;;0.80;;
26106;SDS011;13866;50.748;12.630;2023-09-19T09:08:54;1.20;;;1.20;;
26106;SDS011;13866;50.748;12.630;2023-09-19T09:11:20;1.00;;;1.00;;
26106;SDS011;13866;50.748;12.630;2023-09-19T09:13:46;1.00;;;1.00;;
26106;SDS011;13866;50.748;12.630;2023-09-19T09:16:13;0.93;;;0.93;;
26106;SDS011;13866;50.748;12.630;2023-09-19T09:18:42;4.10;;;0.83;;
26106;SDS011;13866;50.748;12.630;2023-09-19T09:21:09;1.03;;;1.03;;
26106;SDS011;13866;50.748;12.630;2023-09-19T09:23:34;1.50;;;1.10;;
26106;SDS011;13866;50.748;12.630;2023-09-19T09:26:00;0.80;;;0.80;;
26106;SDS011;13866;50.748;12.630;2023-09-19T09:28:31;0.87;;;0.87;;
26106;SDS011;13866;50.748;12.630;2023-09-19T09:30:58;0.50;;;0.50;;
26106;SDS011;13866;50.748;12.630;2023-09-19T09:33:24;1.23;;;0.60;;
26106;SDS011;13866;50.748;12.630;2023-09-19T09:35:50;1.27;;;1.27;;
26106;SDS011;13866;50.748;12.630;2023-09-19T09:38:21;0.77;;;0.77;;
26106;SDS011;13866;50.748;12.630;2023-09-19T09:40:53;0.80;;;0.80;;
26106;SDS011;13866;50.748;12.630;2023-09-19T09:43:35;0.87;;;0.87;;
26106;SDS011;13866;50.748;12.630;2023-09-19T09:51:41;2.67;;;0.70;;
26106;SDS011;13866;50.748;12.630;2023-09-19T09:54:22;0.60;;;0.60;;
26106;SDS011;13866;50.748;12.630;2023-09-19T09:56:52;5.10;;;0.70;;
26106;SDS011;13866;50.748;12.630;2023-09-19T09:59:19;4.53;;;0.67;;
26106;SDS011;13866;50.748;12.630;2023-09-19T10:01:52;0.80;;;0.80;;
26106;SDS011;13866;50.748;12.630;2023-09-19T10:04:28;0.60;;;0.60;;
26106;SDS011;13866;50.748;12.630;2023-09-19T10:06:56;1.10;;;1.10;;
26106;SDS011;13866;50.748;12.630;2023-09-19T10:09:22;0.80;;;0.80;;
26106;SDS011;13866;50.748;12.630;2023-09-19T10:12:00;2.27;;;0.73;;
26106;SDS011;13866;50.748;12.630;2023-09-19T10:14:30;0.83;;;0.83;;
26106;SDS011;13866;50.748;12.630;2023-09-19T10:17:00;1.43;;;1.00;;
26106;SDS011;13866;50.748;12.630;2023-09-19T10:19:35;0.90;;;0.90;;
26106;SDS011;13866;50.748;12.630;2023-09-19T10:22:02;1.90;;;0.90;;
26106;SDS011;13866;50.748;12.630;2023-09-19T10:24:30;0.90;;;0.90;;
26106;SDS011;13866;50.748;12.630;2023-09-19T10:27:01;1.00;;;1.00;;
26106;SDS011;13866;50.748;12.630;2023-09-19T10:29:28;2.30;;;1.90;;
26106;SDS011;13866;50.748;12.630;2023-09-19T10:31:57;0.93;;;0.93;;
26106;SDS011;13866;50.748;12.630;2023-09-19T10:34:25;0.83;;;0.83;;
26106;SDS011;13866;50.748;12.630;2023-09-19T10:36:51;0.90;;;0.90;;
26106;SDS011;13866;50.748;12.630;2023-09-19T10:39:19;1.93;;;1.70;;
26106;SDS011;13866;50.748;12.630;2023-09-19T10:41:50;2.77;;;1.33;;
26106;SDS011;13866;50.748;12.630;2023-09-19T10:44:21;0.80;;;0.80;;
26106;SDS011;13866;50.748;12.630;2023-09-19T10:46:51;0.93;;;0.93;;
26106;SDS011;13866;50.748;12.630;2023-09-19T10:49:18;1.10;;;1.10;;
26106;SDS011;13866;50.748;12.630;2023-09-19T10:51:44;0.90;;;0.90;;
26106;SDS011;13866;50.748;12.630;2023-09-19T10:54:12;1.20;;;1.20;;
26106;SDS011;13866;50.748;12.630;2023-09-19T10:56:44;1.37;;;1.27;;
26106;SDS011;13866;50.748;12.630;2023-09-19T10:59:17;1.20;;;1.10;;
26106;SDS011;13866;50.748;12.630;2023-09-19T11:01:53;5.13;;;1.37;;
26106;SDS011;13866;50.748;12.630;2023-09-19T11:04:29;0.90;;;0.90;;
26106;SDS011;13866;50.748;12.630;2023-09-19T11:15:00;1.37;;;1.33;;
26106;SDS011;13866;50.748;12.630;2023-09-19T11:17:33;2.20;;;1.30;;
26106;SDS011;13866;50.748;12.630;2023-09-19T11:30:42;1.70;;;1.60;;
26106;SDS011;13866;50.748;12.630;2023-09-19T11:33:15;2.60;;;2.40;;
26106;SDS011;13866;50.748;12.630;2023-09-19T11:36:10;15.40;;;2.07;;
26106;SDS011;13866;50.748;12.630;2023-09-19T11:44:31;1.50;;;1.50;;
26106;SDS011;13866;50.748;12.630;2023-09-19T11:49:17;1.23;;;1.23;;
26106;SDS011;13866;50.748;12.630;2023-09-19T11:51:46;2.60;;;1.30;;
26106;SDS011;13866;50.748;12.630;2023-09-19T11:54:15;1.37;;;1.37;;
26106;SDS011;13866;50.748;12.630;2023-09-19T11:56:44;2.10;;;1.67;;
26106;SDS011;13866;50.748;12.630;2023-09-19T11:59:11;1.43;;;1.10;;
26106;SDS011;13866;50.748;12.630;2023-09-19T12:01:37;4.10;;;1.10;;
26106;SDS011;13866;50.748;12.630;2023-09-19T12:04:08;1.20;;;1.20;;
26106;SDS011;13866;50.748;12.630;2023-09-19T12:06:36;1.07;;;1.07;;
26106;SDS011;13866;50.748;12.630;2023-09-19T12:09:12;1.37;;;1.30;;
26106;SDS011;13866;50.748;12.630;2023-09-19T12:11:42;0.97;;;0.97;;
26106;SDS011;13866;50.748;12.630;2023-09-19T12:14:09;1.00;;;1.00;;
26106;SDS011;13866;50.748;12.630;2023-09-19T12:16:35;1.60;;;1.13;;
26106;SDS011;13866;50.748;12.630;2023-09-19T12:19:20;1.20;;;1.10;;
26106;SDS011;13866;50.748;12.630;2023-09-19T12:21:56;4.40;;;1.33;;
26106;SDS011;13866;50.748;12.630;2023-09-19T12:24:29;1.60;;;1.50;;
26106;SDS011;13866;50.748;12.630;2023-09-19T12:27:02;1.50;;;1.50;;
26106;SDS011;13866;50.748;12.630;2023-09-19T12:29:31;1.80;;;1.80;;
26106;SDS011;13866;50.748;12.630;2023-09-19T12:32:11;7.80;;;1.20;;
26106;SDS011;13866;50.748;12.630;2023-09-19T12:34:37;1.60;;;1.60;;
26106;SDS011;13866;50.748;12.630;2023-09-19T12:37:13;1.50;;;1.40;;
26106;SDS011;13866;50.748;12.630;2023-09-19T12:39:47;3.30;;;1.77;;
26106;SDS011;13866;50.748;12.630;2023-09-19T12:42:18;1.40;;;1.40;;
26106;SDS011;13866;50.748;12.630;2023-09-19T12:44:46;1.60;;;1.60;;
26106;SDS011;13866;50.748;12.630;2023-09-19T12:47:15;1.70;;;1.70;;
26106;SDS011;13866;50.748;12.630;2023-09-19T12:52:45;1.53;;;1.53;;
26106;SDS011;13866;50.748;12.630;2023-09-19T12:55:27;4.03;;;1.77;;
26106;SDS011;13866;50.748;12.630;2023-09-19T13:00:38;1.57;;;1.57;;
26106;SDS011;13866;50.748;12.630;2023-09-19T13:03:09;5.80;;;1.30;;
26106;SDS011;13866;50.748;12.630;2023-09-19T13:05:54;1.27;;;1.27;;
26106;SDS011;13866;50.748;12.630;2023-09-19T13:08:31;1.33;;;1.27;;
26106;SDS011;13866;50.748;12.630;2023-09-19T13:13:34;1.60;;;1.50;;
26106;SDS011;13866;50.748;12.630;2023-09-19T13:16:02;3.60;;;1.43;;
26106;SDS011;13866;50.748;12.630;2023-09-19T13:18:29;9.20;;;1.90;;
26106;SDS011;13866;50.748;12.630;2023-09-19T13:21:10;1.27;;;1.27;;
26106;SDS011;13866;50.748;12.630;2023-09-19T13:23:40;1.67;;;1.67;;
26106;SDS011;13866;50.748;12.630;2023-09-19T13:26:08;1.80;;;1.70;;
26106;SDS011;13866;50.748;12.630;2023-09-19T13:28:35;1.77;;;1.67;;
26106;SDS011;13866;50.748;12.630;2023-09-19T13:31:02;2.53;;;1.63;;
26106;SDS011;13866;50.748;12.630;2023-09-19T13:33:27;1.90;;;1.80;;
26106;SDS011;13866;50.748;12.630;2023-09-19T13:35:53;1.50;;;1.50;;
26106;SDS011;13866;50.748;12.630;2023-09-19T13:38:18;1.50;;;1.50;;
26106;SDS011;13866;50.748;12.630;2023-09-19T13:40:46;1.70;;;1.60;;
26106;SDS011;13866;50.748;12.630;2023-09-19T13:43:12;4.67;;;1.90;;
26106;SDS011;13866;50.748;12.630;2023-09-19T13:45:38;3.07;;;1.67;;
26106;SDS011;13866;50.748;12.630;2023-09-19T13:48:06;6.33;;;2.20;;
26106;SDS011;13866;50.748;12.630;2023-09-19T13:50:33;1.60;;;1.60;;
26106;SDS011;13866;50.748;12.630;2023-09-19T13:52:59;2.03;;;1.90;;
26106;SDS011;13866;50.748;12.630;2023-09-19T13:55:25;2.10;;;2.00;;
26106;SDS011;13866;50.748;12.630;2023-09-19T13:57:51;3.23;;;2.50;;
26106;SDS011;13866;50.748;12.630;2023-09-19T14:00:19;2.77;;;2.67;;
26106;SDS011;13866;50.748;12.630;2023-09-19T14:02:45;1.97;;;1.87;;
26106;SDS011;13866;50.748;12.630;2023-09-19T14:05:11;4.10;;;1.97;;
26106;SDS011;13866;50.748;12.630;2023-09-19T14:07:41;1.83;;;1.83;;
26106;SDS011;13866;50.748;12.630;2023-09-19T14:10:10;3.50;;;2.50;;
26106;SDS011;13866;50.748;12.630;2023-09-19T14:12:37;2.00;;;1.90;;
26106;SDS011;13866;50.748;12.630;2023-09-19T14:15:05;3.87;;;1.90;;
26106;SDS011;13866;50.748;12.630;2023-09-19T14:17:32;6.80;;;1.63;;
26106;SDS011;13866;50.748;12.630;2023-09-19T14:19:58;1.90;;;1.90;;
26106;SDS011;13866;50.748;12.630;2023-09-19T14:22:23;2.10;;;2.10;;
26106;SDS011;13866;50.748;12.630;2023-09-19T14:24:48;4.47;;;2.60;;
26106;SDS011;13866;50.748;12.630;2023-09-19T14:27:14;2.50;;;2.20;;
26106;SDS011;13866;50.748;12.630;2023-09-19T14:29:39;1.50;;;1.50;;
26106;SDS011;13866;50.748;12.630;2023-09-19T14:32:06;3.07;;;2.53;;
26106;SDS011;13866;50.748;12.630;2023-09-19T14:34:31;2.20;;;2.10;;
26106;SDS011;13866;50.748;12.630;2023-09-19T14:36:57;2.13;;;2.00;;
26106;SDS011;13866;50.748;12.630;2023-09-19T14:39:23;4.83;;;2.67;;
26106;SDS011;13866;50.748;12.630;2023-09-19T14:41:49;2.30;;;2.20;;
26106;SDS011;13866;50.748;12.630;2023-09-19T14:44:15;1.70;;;1.70;;
26106;SDS011;13866;50.748;12.630;2023-09-19T14:46:41;2.03;;;1.87;;
26106;SDS011;13866;50.748;12.630;2023-09-19T14:49:09;3.33;;;2.87;;
26106;SDS011;13866;50.748;12.630;2023-09-19T14:51:35;5.40;;;2.53;;
26106;SDS011;13866;50.748;12.630;2023-09-19T14:54:02;2.37;;;2.27;;
26106;SDS011;13866;50.748;12.630;2023-09-19T14:56:28;3.47;;;2.20;;
26106;SDS011;13866;50.748;12.630;2023-09-19T14:58:56;2.87;;;2.47;;
26106;SDS011;13866;50.748;12.630;2023-09-19T15:01:21;11.57;;;2.87;;
26106;SDS011;13866;50.748;12.630;2023-09-19T15:03:47;2.20;;;2.10;;
26106;SDS011;13866;50.748;12.630;2023-09-19T15:06:14;1.93;;;1.83;;
26106;SDS011;13866;50.748;12.630;2023-09-19T15:08:41;9.63;;;2.77;;
26106;SDS011;13866;50.748;12.630;2023-09-19T15:11:12;1.73;;;1.73;;
26106;SDS011;13866;50.748;12.630;2023-09-19T15:13:40;4.73;;;2.20;;
26106;SDS011;13866;50.748;12.630;2023-09-19T15:16:07;2.17;;;2.17;;
26106;SDS011;13866;50.748;12.630;2023-09-19T15:18:37;4.23;;;2.73;;
26106;SDS011;13866;50.748;12.630;2023-09-19T15:21:04;3.43;;;2.43;;
26106;SDS011;13866;50.748;12.630;2023-09-19T15:23:33;2.40;;;2.30;;
26106;SDS011;13866;50.748;12.630;2023-09-19T15:26:00;2.97;;;2.80;;
26106;SDS011;13866;50.748;12.630;2023-09-19T15:28:29;2.63;;;2.53;;
26106;SDS011;13866;50.748;12.630;2023-09-19T15:31:03;2.30;;;2.20;;
26106;SDS011;13866;50.748;12.630;2023-09-19T15:33:31;2.97;;;2.77;;
26106;SDS011;13866;50.748;12.630;2023-09-19T15:38:30;11.43;;;2.63;;
26106;SDS011;13866;50.748;12.630;2023-09-19T15:40:56;2.73;;;2.63;;